sensor_id;sensor_type;location;lat;lon;timestamp;P1;durP1;ratioP1;P2;durP2;ratioP2
57565;SDS011;63999;43.882;-0.310;2023-06-04T00:01:36;6.45;;;3.78;;
57565;SDS011;63999;43.882;-0.310;2023-06-04T00:04:02;6.75;;;3.80;;
57565;SDS011;63999;43.882;-0.310;2023-06-04T00:06:28;5.88;;;3.95;;
57565;SDS011;63999;43.882;-0.310;2023-06-04T00:08:53;9.10;;;3.95;;
57565;SDS011;63999;43.882;-0.310;2023-06-04T00:11:19;6.63;;;3.70;;
57565;SDS011;63999;43.882;-0.310;2023-06-04T00:13:45;6.90;;;3.90;;
57565;SDS011;63999;43.882;-0.310;2023-06-04T00:16:11;7.38;;;3.50;;
57565;SDS011;63999;43.882;-0.310;2023-06-04T00:18:36;4.95;;;3.50;;
57565;SDS011;63999;43.882;-0.310;2023-06-04T00:21:02;10.35;;;4.00;;
57565;SDS011;63999;43.882;-0.310;2023-06-04T00:23:28;6.68;;;4.05;;
57565;SDS011;63999;43.882;-0.310;2023-06-04T00:25:54;6.55;;;4.20;;
57565;SDS011;63999;43.882;-0.310;2023-06-04T00:28:19;6.60;;;3.70;;
57565;SDS011;63999;43.882;-0.310;2023-06-04T00:30:46;5.68;;;3.50;;
57565;SDS011;63999;43.882;-0.310;2023-06-04T00:33:12;4.85;;;3.50;;
57565;SDS011;63999;43.882;-0.310;2023-06-04T00:35:38;6.78;;;3.60;;
57565;SDS011;63999;43.882;-0.310;2023-06-04T00:38:03;5.60;;;3.58;;
57565;SDS011;63999;43.882;-0.310;2023-06-04T00:40:29;5.15;;;3.75;;
57565;SDS011;63999;43.882;-0.310;2023-06-04T00:42:55;5.70;;;3.85;;
57565;SDS011;63999;43.882;-0.310;2023-06-04T00:45:20;7.07;;;3.30;;
57565;SDS011;63999;43.882;-0.310;2023-06-04T00:47:46;6.75;;;3.90;;
57565;SDS011;63999;43.882;-0.310;2023-06-04T00:50:13;4.97;;;4.07;;
57565;SDS011;63999;43.882;-0.310;2023-06-04T00:52:39;8.05;;;4.38;;
57565;SDS011;63999;43.882;-0.310;2023-06-04T00:55:06;7.22;;;4.05;;
57565;SDS011;63999;43.882;-0.310;2023-06-04T00:57:32;7.13;;;4.80;;
57565;SDS011;63999;43.882;-0.310;2023-06-04T00:59:57;11.52;;;5.72;;
57565;SDS011;63999;43.882;-0.310;2023-06-04T01:02:23;6.43;;;5.10;;
57565;SDS011;63999;43.882;-0.310;2023-06-04T01:07:39;8.30;;;5.72;;
57565;SDS011;63999;43.882;-0.310;2023-06-04T01:10:10;8.20;;;5.82;;
57565;SDS011;63999;43.882;-0.310;2023-06-04T01:12:38;10.20;;;6.47;;
57565;SDS011;63999;43.882;-0.310;2023-06-04T01:15:05;9.57;;;6.32;;
57565;SDS011;63999;43.882;-0.310;2023-06-04T01:17:33;9.68;;;6.57;;
57565;SDS011;63999;43.882;-0.310;2023-06-04T01:25:39;7.18;;;3.92;;
57565;SDS011;63999;43.882;-0.310;2023-06-04T01:28:09;8.13;;;5.72;;
57565;SDS011;63999;43.882;-0.310;2023-06-04T01:30:37;9.40;;;6.18;;
57565;SDS011;63999;43.882;-0.310;2023-06-04T01:33:16;7.28;;;5.30;;
57565;SDS011;63999;43.882;-0.310;2023-06-04T01:35:43;7.40;;;4.63;;
57565;SDS011;63999;43.882;-0.310;2023-06-04T01:38:10;7.15;;;3.88;;
57565;SDS011;63999;43.882;-0.310;2023-06-04T01:40:36;4.72;;;3.65;;
57565;SDS011;63999;43.882;-0.310;2023-06-04T01:43:02;4.45;;;3.17;;
57565;SDS011;63999;43.882;-0.310;2023-06-04T01:45:28;6.45;;;3.83;;
57565;SDS011;63999;43.882;-0.310;2023-06-04T01:47:55;8.20;;;3.45;;
57565;SDS011;63999;43.882;-0.310;2023-06-04T01:50:22;4.00;;;2.92;;
57565;SDS011;63999;43.882;-0.310;2023-06-04T01:52:48;5.07;;;3.60;;
57565;SDS011;63999;43.882;-0.310;2023-06-04T01:55:16;6.50;;;3.67;;
57565;SDS011;63999;43.882;-0.310;2023-06-04T01:57:43;4.70;;;3.70;;
57565;SDS011;63999;43.882;-0.310;2023-06-04T02:00:10;6.78;;;4.05;;
57565;SDS011;63999;43.882;-0.310;2023-06-04T02:02:37;6.50;;;4.05;;
57565;SDS011;63999;43.882;-0.310;2023-06-04T02:05:03;4.75;;;3.38;;
57565;SDS011;63999;43.882;-0.310;2023-06-04T02:07:32;5.43;;;3.38;;
57565;SDS011;63999;43.882;-0.310;2023-06-04T02:09:59;7.65;;;4.40;;
57565;SDS011;63999;43.882;-0.310;2023-06-04T02:12:25;6.47;;;4.85;;
57565;SDS011;63999;43.882;-0.310;2023-06-04T02:14:51;10.25;;;4.80;;
57565;SDS011;63999;43.882;-0.310;2023-06-04T02:17:17;9.77;;;4.97;;
57565;SDS011;63999;43.882;-0.310;2023-06-04T02:19:43;6.43;;;4.35;;
57565;SDS011;63999;43.882;-0.310;2023-06-04T02:22:13;7.80;;;5.10;;
57565;SDS011;63999;43.882;-0.310;2023-06-04T02:24:39;5.07;;;4.20;;
57565;SDS011;63999;43.882;-0.310;2023-06-04T02:27:07;6.20;;;4.18;;
57565;SDS011;63999;43.882;-0.310;2023-06-04T02:29:33;11.40;;;4.35;;
57565;SDS011;63999;43.882;-0.310;2023-06-04T02:31:59;6.57;;;4.40;;
57565;SDS011;63999;43.882;-0.310;2023-06-04T02:34:25;6.63;;;5.47;;
57565;SDS011;63999;43.882;-0.310;2023-06-04T02:36:51;9.05;;;6.00;;
57565;SDS011;63999;43.882;-0.310;2023-06-04T02:39:18;44.10;;;7.85;;
57565;SDS011;63999;43.882;-0.310;2023-06-04T02:41:44;8.52;;;5.47;;
57565;SDS011;63999;43.882;-0.310;2023-06-04T02:44:10;8.75;;;5.50;;
57565;SDS011;63999;43.882;-0.310;2023-06-04T02:46:36;9.70;;;5.32;;
57565;SDS011;63999;43.882;-0.310;2023-06-04T02:49:02;8.27;;;5.35;;
57565;SDS011;63999;43.882;-0.310;2023-06-04T02:51:28;14.27;;;5.40;;
57565;SDS011;63999;43.882;-0.310;2023-06-04T02:53:54;10.15;;;5.70;;
57565;SDS011;63999;43.882;-0.310;2023-06-04T02:56:20;9.77;;;5.90;;
57565;SDS011;63999;43.882;-0.310;2023-06-04T02:58:50;7.13;;;5.53;;
57565;SDS011;63999;43.882;-0.310;2023-06-04T03:01:18;8.23;;;5.40;;
57565;SDS011;63999;43.882;-0.310;2023-06-04T03:03:46;12.65;;;5.45;;
57565;SDS011;63999;43.882;-0.310;2023-06-04T03:06:12;10.00;;;5.25;;
57565;SDS011;63999;43.882;-0.310;2023-06-04T03:08:39;9.98;;;5.53;;
57565;SDS011;63999;43.882;-0.310;2023-06-04T03:11:05;8.13;;;5.90;;
57565;SDS011;63999;43.882;-0.310;2023-06-04T03:13:31;7.15;;;4.88;;
57565;SDS011;63999;43.882;-0.310;2023-06-04T03:15:57;5.72;;;4.60;;
57565;SDS011;63999;43.882;-0.310;2023-06-04T03:18:26;5.80;;;4.28;;
57565;SDS011;63999;43.882;-0.310;2023-06-04T03:20:53;11.32;;;5.57;;
57565;SDS011;63999;43.882;-0.310;2023-06-04T03:23:20;8.38;;;5.63;;
57565;SDS011;63999;43.882;-0.310;2023-06-04T03:25:46;9.13;;;5.80;;
57565;SDS011;63999;43.882;-0.310;2023-06-04T03:28:12;9.80;;;5.57;;
57565;SDS011;63999;43.882;-0.310;2023-06-04T03:30:39;9.35;;;5.60;;
57565;SDS011;63999;43.882;-0.310;2023-06-04T03:33:05;8.30;;;5.50;;
57565;SDS011;63999;43.882;-0.310;2023-06-04T03:35:31;14.20;;;6.80;;
57565;SDS011;63999;43.882;-0.310;2023-06-04T03:37:57;11.65;;;6.60;;
57565;SDS011;63999;43.882;-0.310;2023-06-04T03:40:23;12.50;;;6.45;;
57565;SDS011;63999;43.882;-0.310;2023-06-04T03:42:48;8.88;;;6.25;;
57565;SDS011;63999;43.882;-0.310;2023-06-04T03:45:14;11.95;;;6.75;;
57565;SDS011;63999;43.882;-0.310;2023-06-04T03:47:40;10.52;;;6.30;;
57565;SDS011;63999;43.882;-0.310;2023-06-04T03:50:06;8.48;;;6.20;;
57565;SDS011;63999;43.882;-0.310;2023-06-04T03:52:32;7.80;;;6.32;;
57565;SDS011;63999;43.882;-0.310;2023-06-04T03:54:58;10.98;;;6.68;;
57565;SDS011;63999;43.882;-0.310;2023-06-04T03:57:24;10.20;;;6.90;;
57565;SDS011;63999;43.882;-0.310;2023-06-04T03:59:49;10.07;;;6.68;;
57565;SDS011;63999;43.882;-0.310;2023-06-04T04:02:15;10.27;;;7.25;;
57565;SDS011;63999;43.882;-0.310;2023-06-04T04:04:44;9.88;;;7.00;;
57565;SDS011;63999;43.882;-0.310;2023-06-04T04:07:10;9.48;;;7.00;;
57565;SDS011;63999;43.882;-0.310;2023-06-04T04:09:36;11.50;;;6.78;;
57565;SDS011;63999;43.882;-0.310;2023-06-04T04:12:02;10.30;;;6.53;;
57565;SDS011;63999;43.882;-0.310;2023-06-04T04:14:29;9.63;;;7.20;;
57565;SDS011;63999;43.882;-0.310;2023-06-04T04:16:54;12.00;;;8.05;;
57565;SDS011;63999;43.882;-0.310;2023-06-04T04:19:20;14.13;;;8.40;;
57565;SDS011;63999;43.882;-0.310;2023-06-04T04:21:46;9.25;;;7.72;;
57565;SDS011;63999;43.882;-0.310;2023-06-04T04:24:24;11.88;;;7.57;;
57565;SDS011;63999;43.882;-0.310;2023-06-04T04:26:51;13.65;;;7.63;;
57565;SDS011;63999;43.882;-0.310;2023-06-04T04:29:19;13.55;;;7.93;;
57565;SDS011;63999;43.882;-0.310;2023-06-04T04:31:49;12.00;;;7.50;;
57565;SDS011;63999;43.882;-0.310;2023-06-04T04:34:16;12.82;;;7.97;;
57565;SDS011;63999;43.882;-0.310;2023-06-04T04:36:42;12.10;;;8.20;;
57565;SDS011;63999;43.882;-0.310;2023-06-04T04:39:09;11.95;;;8.50;;
57565;SDS011;63999;43.882;-0.310;2023-06-04T04:41:36;14.00;;;10.13;;
57565;SDS011;63999;43.882;-0.310;2023-06-04T04:44:03;15.70;;;10.70;;
57565;SDS011;63999;43.882;-0.310;2023-06-04T04:46:30;15.55;;;9.98;;
57565;SDS011;63999;43.882;-0.310;2023-06-04T04:48:56;17.75;;;11.55;;
57565;SDS011;63999;43.882;-0.310;2023-06-04T04:51:21;20.67;;;12.38;;
57565;SDS011;63999;43.882;-0.310;2023-06-04T04:53:47;21.27;;;13.70;;
57565;SDS011;63999;43.882;-0.310;2023-06-04T04:56:13;22.73;;;14.40;;
57565;SDS011;63999;43.882;-0.310;2023-06-04T04:58:39;25.00;;;15.82;;
57565;SDS011;63999;43.882;-0.310;2023-06-04T05:01:05;27.23;;;16.48;;
57565;SDS011;63999;43.882;-0.310;2023-06-04T05:03:31;27.67;;;17.25;;
57565;SDS011;63999;43.882;-0.310;2023-06-04T05:05:56;27.90;;;18.48;;
57565;SDS011;63999;43.882;-0.310;2023-06-04T05:08:22;28.65;;;18.15;;
57565;SDS011;63999;43.882;-0.310;2023-06-04T05:10:49;31.17;;;19.27;;
57565;SDS011;63999;43.882;-0.310;2023-06-04T05:13:15;29.88;;;19.35;;
57565;SDS011;63999;43.882;-0.310;2023-06-04T05:15:42;30.73;;;20.13;;
57565;SDS011;63999;43.882;-0.310;2023-06-04T05:18:08;31.83;;;20.42;;
57565;SDS011;63999;43.882;-0.310;2023-06-04T05:20:34;31.95;;;19.90;;
57565;SDS011;63999;43.882;-0.310;2023-06-04T05:23:03;31.60;;;19.35;;
57565;SDS011;63999;43.882;-0.310;2023-06-04T05:25:29;29.98;;;19.70;;
57565;SDS011;63999;43.882;-0.310;2023-06-04T05:27:56;32.28;;;20.65;;
57565;SDS011;63999;43.882;-0.310;2023-06-04T05:30:22;32.97;;;21.05;;
57565;SDS011;63999;43.882;-0.310;2023-06-04T05:32:48;33.53;;;20.67;;
57565;SDS011;63999;43.882;-0.310;2023-06-04T05:35:15;30.95;;;19.85;;
57565;SDS011;63999;43.882;-0.310;2023-06-04T05:37:42;32.72;;;21.58;;
57565;SDS011;63999;43.882;-0.310;2023-06-04T05:40:10;34.25;;;20.98;;
57565;SDS011;63999;43.882;-0.310;2023-06-04T05:42:37;31.33;;;21.15;;
57565;SDS011;63999;43.882;-0.310;2023-06-04T05:45:05;35.63;;;21.85;;
57565;SDS011;63999;43.882;-0.310;2023-06-04T05:47:33;36.10;;;23.65;;
57565;SDS011;63999;43.882;-0.310;2023-06-04T05:49:59;38.38;;;22.75;;
57565;SDS011;63999;43.882;-0.310;2023-06-04T05:52:25;29.70;;;19.85;;
57565;SDS011;63999;43.882;-0.310;2023-06-04T05:54:51;33.45;;;22.25;;
57565;SDS011;63999;43.882;-0.310;2023-06-04T05:57:17;34.38;;;22.60;;
57565;SDS011;63999;43.882;-0.310;2023-06-04T05:59:43;34.92;;;21.90;;
57565;SDS011;63999;43.882;-0.310;2023-06-04T06:02:08;34.35;;;22.70;;
57565;SDS011;63999;43.882;-0.310;2023-06-04T06:04:34;31.63;;;20.48;;
57565;SDS011;63999;43.882;-0.310;2023-06-04T06:07:00;32.05;;;21.92;;
57565;SDS011;63999;43.882;-0.310;2023-06-04T06:09:26;34.05;;;22.33;;
57565;SDS011;63999;43.882;-0.310;2023-06-04T06:11:51;35.78;;;23.20;;
57565;SDS011;63999;43.882;-0.310;2023-06-04T06:14:17;37.83;;;24.17;;
57565;SDS011;63999;43.882;-0.310;2023-06-04T06:16:43;39.85;;;23.92;;
57565;SDS011;63999;43.882;-0.310;2023-06-04T06:19:08;37.95;;;23.90;;
57565;SDS011;63999;43.882;-0.310;2023-06-04T06:21:36;30.80;;;21.30;;
57565;SDS011;63999;43.882;-0.310;2023-06-04T06:24:01;35.75;;;23.60;;
57565;SDS011;63999;43.882;-0.310;2023-06-04T06:26:27;32.83;;;22.15;;
57565;SDS011;63999;43.882;-0.310;2023-06-04T06:28:53;29.17;;;19.60;;
57565;SDS011;63999;43.882;-0.310;2023-06-04T06:31:19;26.73;;;18.38;;
57565;SDS011;63999;43.882;-0.310;2023-06-04T06:33:45;26.27;;;18.60;;
57565;SDS011;63999;43.882;-0.310;2023-06-04T06:36:11;27.95;;;19.45;;
57565;SDS011;63999;43.882;-0.310;2023-06-04T06:38:44;24.15;;;18.02;;
57565;SDS011;63999;43.882;-0.310;2023-06-04T06:41:11;26.08;;;18.55;;
57565;SDS011;63999;43.882;-0.310;2023-06-04T06:43:36;25.45;;;18.42;;
57565;SDS011;63999;43.882;-0.310;2023-06-04T06:46:02;23.13;;;17.20;;
57565;SDS011;63999;43.882;-0.310;2023-06-04T06:48:28;23.35;;;16.70;;
57565;SDS011;63999;43.882;-0.310;2023-06-04T06:50:54;22.17;;;16.30;;
57565;SDS011;63999;43.882;-0.310;2023-06-04T06:53:20;22.23;;;16.48;;
57565;SDS011;63999;43.882;-0.310;2023-06-04T06:55:46;23.13;;;16.73;;
57565;SDS011;63999;43.882;-0.310;2023-06-04T06:58:12;23.83;;;16.92;;
57565;SDS011;63999;43.882;-0.310;2023-06-04T07:00:37;20.80;;;15.27;;
57565;SDS011;63999;43.882;-0.310;2023-06-04T07:03:03;17.25;;;13.95;;
57565;SDS011;63999;43.882;-0.310;2023-06-04T07:05:29;23.38;;;17.17;;
57565;SDS011;63999;43.882;-0.310;2023-06-04T07:07:55;21.40;;;15.55;;
57565;SDS011;63999;43.882;-0.310;2023-06-04T07:10:22;23.55;;;16.85;;
57565;SDS011;63999;43.882;-0.310;2023-06-04T07:12:49;24.05;;;17.92;;
57565;SDS011;63999;43.882;-0.310;2023-06-04T07:15:15;23.23;;;17.15;;
57565;SDS011;63999;43.882;-0.310;2023-06-04T07:17:41;22.05;;;16.85;;
57565;SDS011;63999;43.882;-0.310;2023-06-04T07:20:07;21.25;;;16.20;;
57565;SDS011;63999;43.882;-0.310;2023-06-04T07:22:34;22.15;;;16.17;;
57565;SDS011;63999;43.882;-0.310;2023-06-04T07:25:00;22.15;;;17.00;;
57565;SDS011;63999;43.882;-0.310;2023-06-04T07:27:27;23.15;;;17.05;;
57565;SDS011;63999;43.882;-0.310;2023-06-04T07:29:53;23.88;;;16.73;;
57565;SDS011;63999;43.882;-0.310;2023-06-04T07:32:18;21.13;;;16.02;;
57565;SDS011;63999;43.882;-0.310;2023-06-04T07:34:44;19.73;;;15.40;;
57565;SDS011;63999;43.882;-0.310;2023-06-04T07:37:10;21.05;;;15.30;;
57565;SDS011;63999;43.882;-0.310;2023-06-04T07:39:38;21.65;;;16.02;;
57565;SDS011;63999;43.882;-0.310;2023-06-04T07:42:04;15.45;;;11.75;;
57565;SDS011;63999;43.882;-0.310;2023-06-04T07:44:32;21.10;;;16.02;;
57565;SDS011;63999;43.882;-0.310;2023-06-04T07:46:58;24.60;;;15.95;;
57565;SDS011;63999;43.882;-0.310;2023-06-04T07:49:23;17.83;;;14.57;;
57565;SDS011;63999;43.882;-0.310;2023-06-04T07:51:49;18.60;;;14.35;;
57565;SDS011;63999;43.882;-0.310;2023-06-04T07:54:15;19.27;;;15.75;;
57565;SDS011;63999;43.882;-0.310;2023-06-04T07:56:41;19.98;;;14.30;;
57565;SDS011;63999;43.882;-0.310;2023-06-04T07:59:07;19.48;;;15.10;;
57565;SDS011;63999;43.882;-0.310;2023-06-04T08:01:33;19.10;;;15.02;;
57565;SDS011;63999;43.882;-0.310;2023-06-04T08:03:59;16.77;;;13.68;;
57565;SDS011;63999;43.882;-0.310;2023-06-04T08:06:25;20.35;;;14.65;;
57565;SDS011;63999;43.882;-0.310;2023-06-04T08:08:51;18.00;;;13.40;;
57565;SDS011;63999;43.882;-0.310;2023-06-04T08:11:18;16.55;;;13.88;;
57565;SDS011;63999;43.882;-0.310;2023-06-04T08:13:44;17.23;;;13.15;;
57565;SDS011;63999;43.882;-0.310;2023-06-04T08:16:09;15.25;;;12.48;;
57565;SDS011;63999;43.882;-0.310;2023-06-04T08:18:39;16.75;;;13.27;;
57565;SDS011;63999;43.882;-0.310;2023-06-04T08:21:05;18.45;;;13.60;;
57565;SDS011;63999;43.882;-0.310;2023-06-04T08:23:31;16.33;;;12.50;;
57565;SDS011;63999;43.882;-0.310;2023-06-04T08:25:57;17.90;;;13.20;;
57565;SDS011;63999;43.882;-0.310;2023-06-04T08:28:24;18.58;;;13.63;;
57565;SDS011;63999;43.882;-0.310;2023-06-04T08:30:50;16.30;;;13.25;;
57565;SDS011;63999;43.882;-0.310;2023-06-04T08:33:15;16.73;;;13.23;;
57565;SDS011;63999;43.882;-0.310;2023-06-04T08:35:41;16.13;;;12.50;;
57565;SDS011;63999;43.882;-0.310;2023-06-04T08:38:07;14.13;;;12.45;;
57565;SDS011;63999;43.882;-0.310;2023-06-04T08:40:33;14.68;;;12.70;;
57565;SDS011;63999;43.882;-0.310;2023-06-04T08:43:00;18.55;;;14.20;;
57565;SDS011;63999;43.882;-0.310;2023-06-04T08:45:26;17.20;;;14.10;;
57565;SDS011;63999;43.882;-0.310;2023-06-04T08:47:53;15.30;;;13.10;;
57565;SDS011;63999;43.882;-0.310;2023-06-04T08:53:41;16.70;;;13.75;;
57565;SDS011;63999;43.882;-0.310;2023-06-04T08:56:07;16.52;;;13.32;;
57565;SDS011;63999;43.882;-0.310;2023-06-04T08:58:33;17.40;;;13.43;;
57565;SDS011;63999;43.882;-0.310;2023-06-04T09:01:00;17.83;;;13.45;;
57565;SDS011;63999;43.882;-0.310;2023-06-04T09:03:28;14.88;;;12.30;;
57565;SDS011;63999;43.882;-0.310;2023-06-04T09:05:58;15.65;;;11.35;;
57565;SDS011;63999;43.882;-0.310;2023-06-04T09:08:25;15.73;;;12.23;;
57565;SDS011;63999;43.882;-0.310;2023-06-04T09:10:53;16.45;;;12.95;;
57565;SDS011;63999;43.882;-0.310;2023-06-04T09:13:21;16.30;;;12.40;;
57565;SDS011;63999;43.882;-0.310;2023-06-04T09:18:26;15.77;;;13.20;;
57565;SDS011;63999;43.882;-0.310;2023-06-04T09:26:09;17.83;;;13.85;;
57565;SDS011;63999;43.882;-0.310;2023-06-04T09:28:35;19.48;;;16.08;;
57565;SDS011;63999;43.882;-0.310;2023-06-04T09:31:07;19.30;;;15.73;;
57565;SDS011;63999;43.882;-0.310;2023-06-04T09:33:47;22.15;;;16.17;;
57565;SDS011;63999;43.882;-0.310;2023-06-04T09:36:16;16.25;;;12.35;;
57565;SDS011;63999;43.882;-0.310;2023-06-04T09:38:42;18.77;;;14.27;;
57565;SDS011;63999;43.882;-0.310;2023-06-04T09:41:17;28.00;;;13.10;;
57565;SDS011;63999;43.882;-0.310;2023-06-04T09:43:44;13.10;;;10.93;;
57565;SDS011;63999;43.882;-0.310;2023-06-04T09:48:40;18.40;;;15.05;;
57565;SDS011;63999;43.882;-0.310;2023-06-04T09:51:10;19.95;;;13.55;;
57565;SDS011;63999;43.882;-0.310;2023-06-04T09:53:37;15.82;;;13.40;;
57565;SDS011;63999;43.882;-0.310;2023-06-04T09:56:04;22.20;;;16.38;;
57565;SDS011;63999;43.882;-0.310;2023-06-04T09:58:35;17.67;;;11.95;;
57565;SDS011;63999;43.882;-0.310;2023-06-04T10:01:04;22.25;;;16.08;;
57565;SDS011;63999;43.882;-0.310;2023-06-04T10:03:34;19.63;;;15.80;;
57565;SDS011;63999;43.882;-0.310;2023-06-04T10:06:04;19.90;;;15.40;;
57565;SDS011;63999;43.882;-0.310;2023-06-04T10:08:31;18.55;;;15.20;;
57565;SDS011;63999;43.882;-0.310;2023-06-04T10:10:59;19.98;;;14.68;;
57565;SDS011;63999;43.882;-0.310;2023-06-04T10:13:27;17.52;;;14.57;;
57565;SDS011;63999;43.882;-0.310;2023-06-04T10:16:13;17.65;;;13.57;;
57565;SDS011;63999;43.882;-0.310;2023-06-04T10:18:40;19.05;;;14.10;;
57565;SDS011;63999;43.882;-0.310;2023-06-04T10:21:06;19.85;;;15.02;;
57565;SDS011;63999;43.882;-0.310;2023-06-04T10:23:33;19.05;;;14.68;;
57565;SDS011;63999;43.882;-0.310;2023-06-04T10:25:59;16.60;;;13.73;;
57565;SDS011;63999;43.882;-0.310;2023-06-04T10:28:26;17.27;;;14.43;;
57565;SDS011;63999;43.882;-0.310;2023-06-04T10:30:52;19.17;;;14.90;;
57565;SDS011;63999;43.882;-0.310;2023-06-04T10:33:18;19.35;;;15.45;;
57565;SDS011;63999;43.882;-0.310;2023-06-04T10:35:45;18.27;;;14.90;;
57565;SDS011;63999;43.882;-0.310;2023-06-04T10:38:12;20.90;;;15.73;;
57565;SDS011;63999;43.882;-0.310;2023-06-04T10:40:39;17.52;;;15.52;;
57565;SDS011;63999;43.882;-0.310;2023-06-04T10:43:12;20.48;;;15.77;;
57565;SDS011;63999;43.882;-0.310;2023-06-04T10:45:39;16.70;;;13.60;;
57565;SDS011;63999;43.882;-0.310;2023-06-04T10:48:06;15.90;;;12.13;;
57565;SDS011;63999;43.882;-0.310;2023-06-04T10:50:33;14.93;;;13.02;;
57565;SDS011;63999;43.882;-0.310;2023-06-04T10:53:01;19.40;;;16.40;;
57565;SDS011;63999;43.882;-0.310;2023-06-04T10:55:28;21.17;;;17.08;;
57565;SDS011;63999;43.882;-0.310;2023-06-04T10:57:56;22.63;;;16.00;;
57565;SDS011;63999;43.882;-0.310;2023-06-04T11:00:39;18.30;;;14.63;;
57565;SDS011;63999;43.882;-0.310;2023-06-04T11:03:06;16.63;;;13.85;;
57565;SDS011;63999;43.882;-0.310;2023-06-04T11:05:37;16.05;;;13.05;;
57565;SDS011;63999;43.882;-0.310;2023-06-04T11:08:04;16.83;;;13.88;;
57565;SDS011;63999;43.882;-0.310;2023-06-04T11:10:34;20.90;;;16.65;;
57565;SDS011;63999;43.882;-0.310;2023-06-04T11:13:02;14.30;;;12.32;;
57565;SDS011;63999;43.882;-0.310;2023-06-04T11:15:44;17.15;;;14.52;;
57565;SDS011;63999;43.882;-0.310;2023-06-04T11:18:15;17.40;;;14.10;;
57565;SDS011;63999;43.882;-0.310;2023-06-04T11:20:43;17.00;;;14.90;;
57565;SDS011;63999;43.882;-0.310;2023-06-04T11:23:11;16.40;;;14.60;;
57565;SDS011;63999;43.882;-0.310;2023-06-04T11:25:38;16.63;;;14.18;;
57565;SDS011;63999;43.882;-0.310;2023-06-04T11:28:04;17.10;;;14.02;;
57565;SDS011;63999;43.882;-0.310;2023-06-04T11:30:30;14.75;;;13.20;;
57565;SDS011;63999;43.882;-0.310;2023-06-04T11:32:59;15.95;;;13.32;;
57565;SDS011;63999;43.882;-0.310;2023-06-04T11:35:26;15.98;;;14.27;;
57565;SDS011;63999;43.882;-0.310;2023-06-04T11:37:52;14.98;;;13.45;;
57565;SDS011;63999;43.882;-0.310;2023-06-04T11:40:20;18.75;;;15.27;;
57565;SDS011;63999;43.882;-0.310;2023-06-04T11:42:46;19.02;;;14.88;;
57565;SDS011;63999;43.882;-0.310;2023-06-04T11:45:13;15.88;;;12.43;;
57565;SDS011;63999;43.882;-0.310;2023-06-04T11:47:44;14.60;;;13.02;;
57565;SDS011;63999;43.882;-0.310;2023-06-04T11:50:14;18.73;;;14.95;;
57565;SDS011;63999;43.882;-0.310;2023-06-04T11:52:40;18.95;;;15.45;;
57565;SDS011;63999;43.882;-0.310;2023-06-04T11:55:10;29.40;;;20.48;;
57565;SDS011;63999;43.882;-0.310;2023-06-04T11:57:37;18.92;;;14.70;;
57565;SDS011;63999;43.882;-0.310;2023-06-04T12:00:04;35.42;;;26.45;;
57565;SDS011;63999;43.882;-0.310;2023-06-04T12:02:37;32.42;;;25.88;;
57565;SDS011;63999;43.882;-0.310;2023-06-04T12:05:10;26.52;;;20.55;;
57565;SDS011;63999;43.882;-0.310;2023-06-04T12:07:40;21.95;;;17.83;;
57565;SDS011;63999;43.882;-0.310;2023-06-04T12:10:09;15.57;;;13.88;;
57565;SDS011;63999;43.882;-0.310;2023-06-04T12:12:39;15.98;;;13.15;;
57565;SDS011;63999;43.882;-0.310;2023-06-04T12:15:08;26.35;;;20.55;;
57565;SDS011;63999;43.882;-0.310;2023-06-04T12:17:35;17.42;;;13.65;;
57565;SDS011;63999;43.882;-0.310;2023-06-04T12:20:02;16.92;;;14.98;;
57565;SDS011;63999;43.882;-0.310;2023-06-04T12:22:30;16.67;;;14.27;;
57565;SDS011;63999;43.882;-0.310;2023-06-04T12:24:57;31.92;;;24.40;;
57565;SDS011;63999;43.882;-0.310;2023-06-04T12:27:25;14.10;;;12.60;;
57565;SDS011;63999;43.882;-0.310;2023-06-04T12:32:20;26.88;;;22.58;;
57565;SDS011;63999;43.882;-0.310;2023-06-04T12:34:46;17.25;;;14.77;;
57565;SDS011;63999;43.882;-0.310;2023-06-04T12:37:13;17.08;;;14.70;;
57565;SDS011;63999;43.882;-0.310;2023-06-04T12:39:39;26.38;;;21.75;;
57565;SDS011;63999;43.882;-0.310;2023-06-04T12:42:05;20.38;;;17.27;;
57565;SDS011;63999;43.882;-0.310;2023-06-04T12:44:33;22.50;;;18.35;;
57565;SDS011;63999;43.882;-0.310;2023-06-04T12:47:01;15.63;;;13.75;;
57565;SDS011;63999;43.882;-0.310;2023-06-04T12:49:27;25.00;;;20.70;;
57565;SDS011;63999;43.882;-0.310;2023-06-04T12:51:53;27.33;;;21.42;;
57565;SDS011;63999;43.882;-0.310;2023-06-04T12:54:18;22.83;;;20.33;;
57565;SDS011;63999;43.882;-0.310;2023-06-04T12:56:45;25.65;;;20.38;;
57565;SDS011;63999;43.882;-0.310;2023-06-04T12:59:10;24.70;;;19.35;;
57565;SDS011;63999;43.882;-0.310;2023-06-04T13:01:36;17.65;;;14.68;;
57565;SDS011;63999;43.882;-0.310;2023-06-04T13:04:05;23.67;;;19.73;;
57565;SDS011;63999;43.882;-0.310;2023-06-04T13:06:31;20.92;;;17.98;;
57565;SDS011;63999;43.882;-0.310;2023-06-04T13:08:59;14.73;;;12.57;;
57565;SDS011;63999;43.882;-0.310;2023-06-04T13:11:25;14.85;;;12.95;;
57565;SDS011;63999;43.882;-0.310;2023-06-04T13:13:50;20.98;;;17.50;;
57565;SDS011;63999;43.882;-0.310;2023-06-04T13:16:16;14.40;;;11.82;;
57565;SDS011;63999;43.882;-0.310;2023-06-04T13:18:42;12.60;;;11.30;;
57565;SDS011;63999;43.882;-0.310;2023-06-04T13:21:07;21.63;;;17.70;;
57565;SDS011;63999;43.882;-0.310;2023-06-04T13:23:33;13.35;;;11.93;;
57565;SDS011;63999;43.882;-0.310;2023-06-04T13:25:59;19.45;;;15.93;;
57565;SDS011;63999;43.882;-0.310;2023-06-04T13:28:26;15.07;;;13.30;;
57565;SDS011;63999;43.882;-0.310;2023-06-04T13:30:52;11.82;;;10.55;;
57565;SDS011;63999;43.882;-0.310;2023-06-04T13:33:18;13.98;;;12.15;;
57565;SDS011;63999;43.882;-0.310;2023-06-04T13:35:45;12.60;;;11.30;;
57565;SDS011;63999;43.882;-0.310;2023-06-04T13:38:11;17.23;;;15.23;;
57565;SDS011;63999;43.882;-0.310;2023-06-04T13:40:37;15.27;;;12.15;;
57565;SDS011;63999;43.882;-0.310;2023-06-04T13:43:04;13.05;;;10.45;;
57565;SDS011;63999;43.882;-0.310;2023-06-04T13:45:32;12.02;;;10.77;;
57565;SDS011;63999;43.882;-0.310;2023-06-04T13:47:57;16.55;;;13.88;;
57565;SDS011;63999;43.882;-0.310;2023-06-04T13:50:30;16.85;;;14.93;;
57565;SDS011;63999;43.882;-0.310;2023-06-04T13:52:56;13.00;;;11.02;;
57565;SDS011;63999;43.882;-0.310;2023-06-04T13:55:22;13.05;;;11.27;;
57565;SDS011;63999;43.882;-0.310;2023-06-04T13:57:48;15.23;;;13.60;;
57565;SDS011;63999;43.882;-0.310;2023-06-04T14:00:13;15.07;;;13.48;;
57565;SDS011;63999;43.882;-0.310;2023-06-04T14:02:40;15.85;;;14.15;;
57565;SDS011;63999;43.882;-0.310;2023-06-04T14:05:06;16.83;;;13.00;;
57565;SDS011;63999;43.882;-0.310;2023-06-04T14:07:32;10.63;;;9.55;;
57565;SDS011;63999;43.882;-0.310;2023-06-04T14:09:58;15.65;;;10.85;;
57565;SDS011;63999;43.882;-0.310;2023-06-04T14:12:24;11.10;;;9.75;;
57565;SDS011;63999;43.882;-0.310;2023-06-04T14:14:50;11.35;;;10.15;;
57565;SDS011;63999;43.882;-0.310;2023-06-04T14:17:16;10.88;;;9.68;;
57565;SDS011;63999;43.882;-0.310;2023-06-04T14:19:42;13.35;;;11.95;;
57565;SDS011;63999;43.882;-0.310;2023-06-04T14:22:09;12.30;;;10.98;;
57565;SDS011;63999;43.882;-0.310;2023-06-04T14:24:36;13.35;;;11.35;;
57565;SDS011;63999;43.882;-0.310;2023-06-04T14:27:02;13.30;;;11.90;;
57565;SDS011;63999;43.882;-0.310;2023-06-04T14:29:27;14.77;;;12.77;;
57565;SDS011;63999;43.882;-0.310;2023-06-04T14:31:53;11.60;;;9.70;;
57565;SDS011;63999;43.882;-0.310;2023-06-04T14:34:19;11.48;;;9.93;;
57565;SDS011;63999;43.882;-0.310;2023-06-04T14:36:45;9.82;;;8.82;;
57565;SDS011;63999;43.882;-0.310;2023-06-04T14:39:12;9.88;;;8.77;;